CheckWX is a tool to help pilots better visualize weather data.  It is not intended as a substitute for an official pre-flight weather briefing.

00:22:15 UTC

EGTC METAR
Cranfield Airport
Cranfield, United Kingdom
Current

7 hours ago

EGTC 051720Z 22018KT 9999 SCT020 07/06 Q1012
Observed
Dec-5 @ 17:20 UTC
Wind
  • 220° at 18 KTS
Visibility
10,000+ meters
Flight Rules
VFR
Cloud Levels
  • Scattered at 2,000' AGL
Temperature
C / 45°F
Dewpoint
C / 43°F
Humidity
93%
Altimeter
29.88" Hg
Pressure
1011.92 hPa
Previous

8 hours ago

EGTC 051650Z 21017G27KT 9999 SCT019 07/06 Q1013
Observed
Dec-5 @ 16:50 UTC
Wind
  • 210° at 17 KTS
  • Gusting to 27 KTS
Visibility
10,000+ meters
Flight Rules
VFR
Cloud Levels
  • Scattered at 1,900' AGL
Temperature
C / 45°F
Dewpoint
C / 43°F
Humidity
93%
Altimeter
29.91" Hg
Pressure
1012.92 hPa
Previous

8 hours ago

EGTC 051620Z 22017KT 9999 FEW010 SCT018 07/07 Q1013
Observed
Dec-5 @ 16:20 UTC
Wind
  • 220° at 17 KTS
Visibility
10,000+ meters
Flight Rules
VFR
Cloud Levels
  • Few at 1,000' AGL
  • Scattered at 1,800' AGL
Temperature
C / 45°F
Dewpoint
C / 45°F
Humidity
100%
Altimeter
29.91" Hg
Pressure
1012.92 hPa